sensor_id;sensor_type;location;lat;lon;timestamp;P1;durP1;ratioP1;P2;durP2;ratioP2
20073;SDS011;10197;54.282;10.078;2023-06-19T00:01:34;7.70;;;6.63;;
20073;SDS011;10197;54.282;10.078;2023-06-19T00:04:02;7.40;;;6.70;;
20073;SDS011;10197;54.282;10.078;2023-06-19T00:06:29;6.70;;;6.10;;
20073;SDS011;10197;54.282;10.078;2023-06-19T00:08:56;6.85;;;6.25;;
20073;SDS011;10197;54.282;10.078;2023-06-19T00:11:22;9.73;;;7.43;;
20073;SDS011;10197;54.282;10.078;2023-06-19T00:13:49;8.80;;;6.78;;
20073;SDS011;10197;54.282;10.078;2023-06-19T00:16:18;6.60;;;6.00;;
20073;SDS011;10197;54.282;10.078;2023-06-19T00:18:45;7.22;;;6.53;;
20073;SDS011;10197;54.282;10.078;2023-06-19T00:21:12;9.68;;;6.95;;
20073;SDS011;10197;54.282;10.078;2023-06-19T00:23:39;7.80;;;6.68;;
20073;SDS011;10197;54.282;10.078;2023-06-19T00:26:06;7.18;;;6.45;;
20073;SDS011;10197;54.282;10.078;2023-06-19T00:28:32;6.88;;;6.25;;
20073;SDS011;10197;54.282;10.078;2023-06-19T00:30:59;7.43;;;6.72;;
20073;SDS011;10197;54.282;10.078;2023-06-19T00:33:28;7.45;;;6.70;;
20073;SDS011;10197;54.282;10.078;2023-06-19T00:35:54;7.65;;;6.85;;
20073;SDS011;10197;54.282;10.078;2023-06-19T00:38:21;6.95;;;6.25;;
20073;SDS011;10197;54.282;10.078;2023-06-19T00:40:49;7.55;;;6.85;;
20073;SDS011;10197;54.282;10.078;2023-06-19T00:43:16;7.30;;;6.53;;
20073;SDS011;10197;54.282;10.078;2023-06-19T00:45:43;7.10;;;6.40;;
20073;SDS011;10197;54.282;10.078;2023-06-19T00:48:10;7.50;;;6.72;;
20073;SDS011;10197;54.282;10.078;2023-06-19T00:50:39;6.95;;;6.35;;
20073;SDS011;10197;54.282;10.078;2023-06-19T00:53:05;6.85;;;6.15;;
20073;SDS011;10197;54.282;10.078;2023-06-19T00:55:34;7.80;;;7.00;;
20073;SDS011;10197;54.282;10.078;2023-06-19T00:58:01;6.72;;;6.03;;
20073;SDS011;10197;54.282;10.078;2023-06-19T01:00:28;6.93;;;6.32;;
20073;SDS011;10197;54.282;10.078;2023-06-19T01:02:56;6.60;;;6.00;;
20073;SDS011;10197;54.282;10.078;2023-06-19T01:05:23;6.75;;;6.15;;
20073;SDS011;10197;54.282;10.078;2023-06-19T01:07:55;8.38;;;7.28;;
20073;SDS011;10197;54.282;10.078;2023-06-19T01:10:27;7.40;;;6.70;;
20073;SDS011;10197;54.282;10.078;2023-06-19T01:12:56;7.57;;;6.88;;
20073;SDS011;10197;54.282;10.078;2023-06-19T01:15:25;6.75;;;6.15;;
20073;SDS011;10197;54.282;10.078;2023-06-19T01:17:53;6.80;;;6.07;;
20073;SDS011;10197;54.282;10.078;2023-06-19T01:20:21;7.20;;;6.60;;
20073;SDS011;10197;54.282;10.078;2023-06-19T01:22:50;6.93;;;6.32;;
20073;SDS011;10197;54.282;10.078;2023-06-19T01:25:22;7.28;;;6.57;;
20073;SDS011;10197;54.282;10.078;2023-06-19T01:27:49;7.65;;;6.40;;
20073;SDS011;10197;54.282;10.078;2023-06-19T01:30:16;7.40;;;6.70;;
20073;SDS011;10197;54.282;10.078;2023-06-19T01:32:46;6.80;;;6.20;;
20073;SDS011;10197;54.282;10.078;2023-06-19T01:35:17;6.90;;;6.30;;
20073;SDS011;10197;54.282;10.078;2023-06-19T01:37:46;7.00;;;6.40;;
20073;SDS011;10197;54.282;10.078;2023-06-19T01:40:16;8.07;;;7.10;;
20073;SDS011;10197;54.282;10.078;2023-06-19T01:42:46;6.80;;;6.20;;
20073;SDS011;10197;54.282;10.078;2023-06-19T01:45:13;6.93;;;6.28;;
20073;SDS011;10197;54.282;10.078;2023-06-19T01:47:41;6.75;;;6.15;;
20073;SDS011;10197;54.282;10.078;2023-06-19T01:50:10;7.00;;;6.30;;
20073;SDS011;10197;54.282;10.078;2023-06-19T01:52:37;7.25;;;6.55;;
20073;SDS011;10197;54.282;10.078;2023-06-19T01:55:05;6.50;;;5.90;;
20073;SDS011;10197;54.282;10.078;2023-06-19T01:57:35;6.78;;;6.18;;
20073;SDS011;10197;54.282;10.078;2023-06-19T02:00:03;7.45;;;6.75;;
20073;SDS011;10197;54.282;10.078;2023-06-19T02:02:39;7.20;;;6.50;;
20073;SDS011;10197;54.282;10.078;2023-06-19T02:05:06;6.30;;;5.70;;
20073;SDS011;10197;54.282;10.078;2023-06-19T02:07:33;7.05;;;6.45;;
20073;SDS011;10197;54.282;10.078;2023-06-19T02:10:00;6.90;;;6.25;;
20073;SDS011;10197;54.282;10.078;2023-06-19T02:12:27;7.00;;;6.30;;
20073;SDS011;10197;54.282;10.078;2023-06-19T02:14:55;7.30;;;6.60;;
20073;SDS011;10197;54.282;10.078;2023-06-19T02:17:22;7.18;;;6.57;;
20073;SDS011;10197;54.282;10.078;2023-06-19T02:19:49;7.18;;;6.47;;
20073;SDS011;10197;54.282;10.078;2023-06-19T02:22:17;7.32;;;6.57;;
20073;SDS011;10197;54.282;10.078;2023-06-19T02:24:45;7.22;;;6.38;;
20073;SDS011;10197;54.282;10.078;2023-06-19T02:27:12;6.82;;;6.13;;
20073;SDS011;10197;54.282;10.078;2023-06-19T02:29:41;6.82;;;6.13;;
20073;SDS011;10197;54.282;10.078;2023-06-19T02:32:09;6.82;;;6.22;;
20073;SDS011;10197;54.282;10.078;2023-06-19T02:34:36;7.70;;;6.90;;
20073;SDS011;10197;54.282;10.078;2023-06-19T02:37:04;6.85;;;6.25;;
20073;SDS011;10197;54.282;10.078;2023-06-19T02:39:36;7.70;;;7.00;;
20073;SDS011;10197;54.282;10.078;2023-06-19T02:42:03;7.50;;;6.28;;
20073;SDS011;10197;54.282;10.078;2023-06-19T02:44:31;6.70;;;6.15;;
20073;SDS011;10197;54.282;10.078;2023-06-19T02:46:58;6.88;;;6.28;;
20073;SDS011;10197;54.282;10.078;2023-06-19T02:49:27;7.28;;;6.57;;
20073;SDS011;10197;54.282;10.078;2023-06-19T02:51:53;7.40;;;6.53;;
20073;SDS011;10197;54.282;10.078;2023-06-19T02:54:21;7.53;;;6.82;;
20073;SDS011;10197;54.282;10.078;2023-06-19T02:56:47;7.32;;;6.60;;
20073;SDS011;10197;54.282;10.078;2023-06-19T02:59:16;7.55;;;6.90;;
20073;SDS011;10197;54.282;10.078;2023-06-19T03:01:43;7.00;;;6.40;;
20073;SDS011;10197;54.282;10.078;2023-06-19T03:04:12;7.57;;;6.88;;
20073;SDS011;10197;54.282;10.078;2023-06-19T03:06:41;7.72;;;6.97;;
20073;SDS011;10197;54.282;10.078;2023-06-19T03:09:08;8.13;;;7.32;;
20073;SDS011;10197;54.282;10.078;2023-06-19T03:11:38;8.20;;;7.32;;
20073;SDS011;10197;54.282;10.078;2023-06-19T03:14:07;8.35;;;7.47;;
20073;SDS011;10197;54.282;10.078;2023-06-19T03:16:35;7.90;;;7.10;;
20073;SDS011;10197;54.282;10.078;2023-06-19T03:19:02;7.45;;;6.65;;
20073;SDS011;10197;54.282;10.078;2023-06-19T03:21:29;7.43;;;6.72;;
20073;SDS011;10197;54.282;10.078;2023-06-19T03:23:57;7.40;;;6.72;;
20073;SDS011;10197;54.282;10.078;2023-06-19T03:26:25;8.45;;;7.65;;
20073;SDS011;10197;54.282;10.078;2023-06-19T03:28:54;7.72;;;6.93;;
20073;SDS011;10197;54.282;10.078;2023-06-19T03:31:23;10.25;;;7.20;;
20073;SDS011;10197;54.282;10.078;2023-06-19T03:33:50;7.32;;;6.63;;
20073;SDS011;10197;54.282;10.078;2023-06-19T03:36:19;7.82;;;7.13;;
20073;SDS011;10197;54.282;10.078;2023-06-19T03:38:48;8.45;;;7.55;;
20073;SDS011;10197;54.282;10.078;2023-06-19T03:41:20;7.55;;;6.85;;
20073;SDS011;10197;54.282;10.078;2023-06-19T03:43:47;7.45;;;6.75;;
20073;SDS011;10197;54.282;10.078;2023-06-19T03:46:15;7.88;;;6.70;;
20073;SDS011;10197;54.282;10.078;2023-06-19T03:48:42;9.20;;;7.55;;
20073;SDS011;10197;54.282;10.078;2023-06-19T03:51:09;9.55;;;7.40;;
20073;SDS011;10197;54.282;10.078;2023-06-19T03:53:36;8.60;;;7.57;;
20073;SDS011;10197;54.282;10.078;2023-06-19T03:56:03;9.40;;;7.65;;
20073;SDS011;10197;54.282;10.078;2023-06-19T03:58:33;9.00;;;7.93;;
20073;SDS011;10197;54.282;10.078;2023-06-19T04:01:01;9.15;;;7.85;;
20073;SDS011;10197;54.282;10.078;2023-06-19T04:03:28;8.15;;;7.35;;
20073;SDS011;10197;54.282;10.078;2023-06-19T04:05:55;8.13;;;7.32;;
20073;SDS011;10197;54.282;10.078;2023-06-19T04:08:22;8.40;;;7.15;;
20073;SDS011;10197;54.282;10.078;2023-06-19T04:10:50;8.07;;;7.28;;
20073;SDS011;10197;54.282;10.078;2023-06-19T04:13:17;7.93;;;7.13;;
20073;SDS011;10197;54.282;10.078;2023-06-19T04:15:49;7.70;;;7.00;;
20073;SDS011;10197;54.282;10.078;2023-06-19T04:18:20;8.70;;;7.80;;
20073;SDS011;10197;54.282;10.078;2023-06-19T04:20:48;8.88;;;7.65;;
20073;SDS011;10197;54.282;10.078;2023-06-19T04:23:15;8.05;;;7.28;;
20073;SDS011;10197;54.282;10.078;2023-06-19T04:25:42;8.00;;;7.07;;
20073;SDS011;10197;54.282;10.078;2023-06-19T04:28:10;9.57;;;7.88;;
20073;SDS011;10197;54.282;10.078;2023-06-19T04:30:37;8.15;;;7.35;;
20073;SDS011;10197;54.282;10.078;2023-06-19T04:33:08;8.73;;;7.93;;
20073;SDS011;10197;54.282;10.078;2023-06-19T04:35:35;8.63;;;7.82;;
20073;SDS011;10197;54.282;10.078;2023-06-19T04:38:05;7.93;;;7.15;;
20073;SDS011;10197;54.282;10.078;2023-06-19T04:40:32;8.27;;;7.45;;
20073;SDS011;10197;54.282;10.078;2023-06-19T04:42:59;9.30;;;7.53;;
20073;SDS011;10197;54.282;10.078;2023-06-19T04:45:27;9.07;;;7.25;;
20073;SDS011;10197;54.282;10.078;2023-06-19T04:47:54;8.30;;;7.45;;
20073;SDS011;10197;54.282;10.078;2023-06-19T04:50:26;9.30;;;7.68;;
20073;SDS011;10197;54.282;10.078;2023-06-19T04:52:53;9.13;;;8.23;;
20073;SDS011;10197;54.282;10.078;2023-06-19T04:55:20;8.25;;;7.45;;
20073;SDS011;10197;54.282;10.078;2023-06-19T04:57:47;8.93;;;7.32;;
20073;SDS011;10197;54.282;10.078;2023-06-19T05:00:14;7.72;;;6.93;;
20073;SDS011;10197;54.282;10.078;2023-06-19T05:02:44;8.30;;;7.40;;
20073;SDS011;10197;54.282;10.078;2023-06-19T05:05:12;8.88;;;7.28;;
20073;SDS011;10197;54.282;10.078;2023-06-19T05:07:40;8.30;;;7.50;;
20073;SDS011;10197;54.282;10.078;2023-06-19T05:10:08;10.93;;;8.18;;
20073;SDS011;10197;54.282;10.078;2023-06-19T05:12:35;8.80;;;8.00;;
20073;SDS011;10197;54.282;10.078;2023-06-19T05:15:02;8.80;;;7.90;;
20073;SDS011;10197;54.282;10.078;2023-06-19T05:17:30;8.80;;;7.90;;
20073;SDS011;10197;54.282;10.078;2023-06-19T05:19:57;9.05;;;7.22;;
20073;SDS011;10197;54.282;10.078;2023-06-19T05:22:24;8.82;;;7.93;;
20073;SDS011;10197;54.282;10.078;2023-06-19T05:24:53;8.30;;;7.50;;
20073;SDS011;10197;54.282;10.078;2023-06-19T05:27:20;8.60;;;7.63;;
20073;SDS011;10197;54.282;10.078;2023-06-19T05:29:47;8.88;;;7.88;;
20073;SDS011;10197;54.282;10.078;2023-06-19T05:32:14;8.68;;;7.47;;
20073;SDS011;10197;54.282;10.078;2023-06-19T05:34:41;8.27;;;7.15;;
20073;SDS011;10197;54.282;10.078;2023-06-19T05:37:07;7.70;;;7.00;;
20073;SDS011;10197;54.282;10.078;2023-06-19T05:39:34;9.65;;;7.97;;
20073;SDS011;10197;54.282;10.078;2023-06-19T05:42:03;8.43;;;7.57;;
20073;SDS011;10197;54.282;10.078;2023-06-19T05:44:30;8.13;;;7.43;;
20073;SDS011;10197;54.282;10.078;2023-06-19T05:46:57;9.48;;;8.13;;
20073;SDS011;10197;54.282;10.078;2023-06-19T05:49:24;8.63;;;7.47;;
20073;SDS011;10197;54.282;10.078;2023-06-19T05:51:51;8.23;;;7.05;;
20073;SDS011;10197;54.282;10.078;2023-06-19T05:54:18;7.63;;;6.93;;
20073;SDS011;10197;54.282;10.078;2023-06-19T05:56:45;8.07;;;7.03;;
20073;SDS011;10197;54.282;10.078;2023-06-19T05:59:17;7.60;;;6.88;;
20073;SDS011;10197;54.282;10.078;2023-06-19T06:01:44;9.00;;;7.63;;
20073;SDS011;10197;54.282;10.078;2023-06-19T06:04:11;8.13;;;7.28;;
20073;SDS011;10197;54.282;10.078;2023-06-19T06:06:38;8.27;;;7.47;;
20073;SDS011;10197;54.282;10.078;2023-06-19T06:09:06;8.68;;;7.38;;
20073;SDS011;10197;54.282;10.078;2023-06-19T06:11:36;7.88;;;6.95;;
20073;SDS011;10197;54.282;10.078;2023-06-19T06:14:02;7.95;;;7.25;;
20073;SDS011;10197;54.282;10.078;2023-06-19T06:16:31;8.27;;;7.40;;
20073;SDS011;10197;54.282;10.078;2023-06-19T06:18:58;8.10;;;7.30;;
20073;SDS011;10197;54.282;10.078;2023-06-19T06:21:25;8.35;;;7.47;;
20073;SDS011;10197;54.282;10.078;2023-06-19T06:23:52;7.70;;;7.00;;
20073;SDS011;10197;54.282;10.078;2023-06-19T06:26:19;8.35;;;7.40;;
20073;SDS011;10197;54.282;10.078;2023-06-19T06:28:46;7.93;;;7.18;;
20073;SDS011;10197;54.282;10.078;2023-06-19T06:31:13;8.20;;;7.43;;
20073;SDS011;10197;54.282;10.078;2023-06-19T06:33:42;8.50;;;7.70;;
20073;SDS011;10197;54.282;10.078;2023-06-19T06:36:09;10.68;;;7.65;;
20073;SDS011;10197;54.282;10.078;2023-06-19T06:38:36;8.25;;;7.45;;
20073;SDS011;10197;54.282;10.078;2023-06-19T06:41:02;8.13;;;7.20;;
20073;SDS011;10197;54.282;10.078;2023-06-19T06:43:29;8.98;;;7.85;;
20073;SDS011;10197;54.282;10.078;2023-06-19T06:45:56;8.55;;;7.55;;
20073;SDS011;10197;54.282;10.078;2023-06-19T06:48:23;7.85;;;7.05;;
20073;SDS011;10197;54.282;10.078;2023-06-19T06:50:51;8.40;;;7.50;;
20073;SDS011;10197;54.282;10.078;2023-06-19T06:53:24;8.43;;;7.63;;
20073;SDS011;10197;54.282;10.078;2023-06-19T06:55:51;9.95;;;8.43;;
20073;SDS011;10197;54.282;10.078;2023-06-19T06:58:18;8.93;;;8.02;;
20073;SDS011;10197;54.282;10.078;2023-06-19T07:00:45;8.40;;;7.45;;
20073;SDS011;10197;54.282;10.078;2023-06-19T07:03:12;8.98;;;7.88;;
20073;SDS011;10197;54.282;10.078;2023-06-19T07:05:39;9.82;;;7.38;;
20073;SDS011;10197;54.282;10.078;2023-06-19T07:08:08;8.27;;;7.50;;
20073;SDS011;10197;54.282;10.078;2023-06-19T07:10:34;7.38;;;6.68;;
20073;SDS011;10197;54.282;10.078;2023-06-19T07:13:01;7.95;;;7.18;;
20073;SDS011;10197;54.282;10.078;2023-06-19T07:15:28;9.07;;;8.18;;
20073;SDS011;10197;54.282;10.078;2023-06-19T07:17:55;8.77;;;7.80;;
20073;SDS011;10197;54.282;10.078;2023-06-19T07:20:23;7.45;;;6.72;;
20073;SDS011;10197;54.282;10.078;2023-06-19T07:22:50;8.85;;;7.10;;
20073;SDS011;10197;54.282;10.078;2023-06-19T07:25:18;8.23;;;7.40;;
20073;SDS011;10197;54.282;10.078;2023-06-19T07:27:45;9.15;;;7.78;;
20073;SDS011;10197;54.282;10.078;2023-06-19T07:30:13;9.43;;;8.30;;
20073;SDS011;10197;54.282;10.078;2023-06-19T07:32:40;9.00;;;8.10;;
20073;SDS011;10197;54.282;10.078;2023-06-19T07:35:07;9.50;;;8.40;;
20073;SDS011;10197;54.282;10.078;2023-06-19T07:37:35;8.90;;;8.10;;
20073;SDS011;10197;54.282;10.078;2023-06-19T07:43:54;9.63;;;8.63;;
20073;SDS011;10197;54.282;10.078;2023-06-19T07:46:20;10.15;;;8.45;;
20073;SDS011;10197;54.282;10.078;2023-06-19T07:48:47;9.05;;;8.15;;
20073;SDS011;10197;54.282;10.078;2023-06-19T07:51:14;9.60;;;8.70;;
20073;SDS011;10197;54.282;10.078;2023-06-19T07:53:41;8.80;;;8.00;;
20073;SDS011;10197;54.282;10.078;2023-06-19T07:56:08;8.48;;;7.75;;
20073;SDS011;10197;54.282;10.078;2023-06-19T07:58:36;10.25;;;9.10;;
20073;SDS011;10197;54.282;10.078;2023-06-19T08:01:03;9.85;;;8.90;;
20073;SDS011;10197;54.282;10.078;2023-06-19T08:03:31;9.70;;;8.70;;
20073;SDS011;10197;54.282;10.078;2023-06-19T08:05:58;9.60;;;8.38;;
20073;SDS011;10197;54.282;10.078;2023-06-19T08:08:26;9.65;;;8.73;;
20073;SDS011;10197;54.282;10.078;2023-06-19T08:10:53;9.25;;;8.45;;
20073;SDS011;10197;54.282;10.078;2023-06-19T08:13:21;10.45;;;8.93;;
20073;SDS011;10197;54.282;10.078;2023-06-19T08:15:50;9.38;;;8.48;;
20073;SDS011;10197;54.282;10.078;2023-06-19T08:21:29;11.85;;;10.65;;
20073;SDS011;10197;54.282;10.078;2023-06-19T08:24:44;10.52;;;9.52;;
20073;SDS011;10197;54.282;10.078;2023-06-19T08:27:26;10.75;;;9.82;;
20073;SDS011;10197;54.282;10.078;2023-06-19T08:29:54;11.10;;;9.88;;
20073;SDS011;10197;54.282;10.078;2023-06-19T08:32:22;12.38;;;11.27;;
20073;SDS011;10197;54.282;10.078;2023-06-19T08:34:49;13.02;;;10.07;;
20073;SDS011;10197;54.282;10.078;2023-06-19T08:37:16;10.23;;;9.30;;
20073;SDS011;10197;54.282;10.078;2023-06-19T08:39:44;10.68;;;9.68;;
20073;SDS011;10197;54.282;10.078;2023-06-19T08:42:10;10.32;;;9.35;;
20073;SDS011;10197;54.282;10.078;2023-06-19T08:44:38;10.98;;;9.88;;
20073;SDS011;10197;54.282;10.078;2023-06-19T08:47:05;10.95;;;9.32;;
20073;SDS011;10197;54.282;10.078;2023-06-19T08:49:34;11.23;;;10.20;;
20073;SDS011;10197;54.282;10.078;2023-06-19T08:52:02;11.20;;;10.18;;
20073;SDS011;10197;54.282;10.078;2023-06-19T08:54:30;10.57;;;9.48;;
20073;SDS011;10197;54.282;10.078;2023-06-19T09:02:45;13.40;;;12.10;;
20073;SDS011;10197;54.282;10.078;2023-06-19T09:05:15;11.60;;;10.50;;
20073;SDS011;10197;54.282;10.078;2023-06-19T09:07:43;11.45;;;9.85;;
20073;SDS011;10197;54.282;10.078;2023-06-19T09:10:15;12.02;;;10.57;;
20073;SDS011;10197;54.282;10.078;2023-06-19T09:46:37;12.13;;;10.98;;
20073;SDS011;10197;54.282;10.078;2023-06-19T09:49:08;12.02;;;10.57;;
20073;SDS011;10197;54.282;10.078;2023-06-19T09:51:37;11.48;;;10.38;;
20073;SDS011;10197;54.282;10.078;2023-06-19T09:54:04;11.27;;;10.18;;
20073;SDS011;10197;54.282;10.078;2023-06-19T09:56:31;10.80;;;9.73;;
20073;SDS011;10197;54.282;10.078;2023-06-19T09:58:59;10.60;;;9.60;;
20073;SDS011;10197;54.282;10.078;2023-06-19T10:01:29;11.55;;;10.00;;
20073;SDS011;10197;54.282;10.078;2023-06-19T10:04:06;11.52;;;10.32;;
20073;SDS011;10197;54.282;10.078;2023-06-19T10:06:42;11.00;;;10.07;;
20073;SDS011;10197;54.282;10.078;2023-06-19T10:09:09;11.13;;;9.98;;
20073;SDS011;10197;54.282;10.078;2023-06-19T10:11:46;11.50;;;10.25;;
20073;SDS011;10197;54.282;10.078;2023-06-19T10:14:13;10.50;;;9.60;;
20073;SDS011;10197;54.282;10.078;2023-06-19T10:16:45;11.70;;;10.52;;
20073;SDS011;10197;54.282;10.078;2023-06-19T10:19:13;10.88;;;9.88;;
20073;SDS011;10197;54.282;10.078;2023-06-19T10:21:45;11.93;;;10.80;;
20073;SDS011;10197;54.282;10.078;2023-06-19T10:24:19;12.02;;;10.77;;
20073;SDS011;10197;54.282;10.078;2023-06-19T10:26:56;11.55;;;10.45;;
20073;SDS011;10197;54.282;10.078;2023-06-19T10:29:25;11.52;;;10.43;;
20073;SDS011;10197;54.282;10.078;2023-06-19T10:31:54;11.63;;;10.63;;
20073;SDS011;10197;54.282;10.078;2023-06-19T10:34:22;12.13;;;10.93;;
20073;SDS011;10197;54.282;10.078;2023-06-19T10:36:49;11.00;;;10.00;;
20073;SDS011;10197;54.282;10.078;2023-06-19T10:39:16;10.50;;;9.60;;
20073;SDS011;10197;54.282;10.078;2023-06-19T10:41:43;13.70;;;12.27;;
20073;SDS011;10197;54.282;10.078;2023-06-19T10:44:10;13.93;;;10.98;;
20073;SDS011;10197;54.282;10.078;2023-06-19T10:46:40;11.80;;;10.60;;
20073;SDS011;10197;54.282;10.078;2023-06-19T10:49:10;10.73;;;9.82;;
20073;SDS011;10197;54.282;10.078;2023-06-19T10:51:39;10.65;;;9.65;;
20073;SDS011;10197;54.282;10.078;2023-06-19T10:54:09;10.75;;;9.65;;
20073;SDS011;10197;54.282;10.078;2023-06-19T10:56:36;11.82;;;10.82;;
20073;SDS011;10197;54.282;10.078;2023-06-19T10:59:03;11.48;;;10.38;;
20073;SDS011;10197;54.282;10.078;2023-06-19T11:01:35;10.82;;;9.77;;
20073;SDS011;10197;54.282;10.078;2023-06-19T11:04:03;13.27;;;11.90;;
20073;SDS011;10197;54.282;10.078;2023-06-19T11:06:33;12.95;;;10.93;;
20073;SDS011;10197;54.282;10.078;2023-06-19T11:09:00;12.52;;;11.23;;
20073;SDS011;10197;54.282;10.078;2023-06-19T11:11:34;14.70;;;11.75;;
20073;SDS011;10197;54.282;10.078;2023-06-19T11:14:02;14.55;;;11.43;;
20073;SDS011;10197;54.282;10.078;2023-06-19T11:16:29;11.35;;;10.25;;
20073;SDS011;10197;54.282;10.078;2023-06-19T11:18:56;11.98;;;10.85;;
20073;SDS011;10197;54.282;10.078;2023-06-19T11:21:28;20.02;;;17.70;;
20073;SDS011;10197;54.282;10.078;2023-06-19T11:23:59;13.73;;;12.15;;
20073;SDS011;10197;54.282;10.078;2023-06-19T11:26:27;11.15;;;10.15;;
20073;SDS011;10197;54.282;10.078;2023-06-19T11:28:54;13.32;;;11.15;;
20073;SDS011;10197;54.282;10.078;2023-06-19T11:31:24;11.35;;;10.13;;
20073;SDS011;10197;54.282;10.078;2023-06-19T11:33:55;10.07;;;9.15;;
20073;SDS011;10197;54.282;10.078;2023-06-19T11:36:23;12.05;;;10.85;;
20073;SDS011;10197;54.282;10.078;2023-06-19T11:38:51;11.70;;;10.50;;
20073;SDS011;10197;54.282;10.078;2023-06-19T11:41:26;12.10;;;11.00;;
20073;SDS011;10197;54.282;10.078;2023-06-19T11:43:59;11.57;;;10.45;;
20073;SDS011;10197;54.282;10.078;2023-06-19T11:46:30;11.80;;;10.60;;
20073;SDS011;10197;54.282;10.078;2023-06-19T11:49:07;11.15;;;10.13;;
20073;SDS011;10197;54.282;10.078;2023-06-19T11:51:35;10.77;;;9.65;;
20073;SDS011;10197;54.282;10.078;2023-06-19T11:54:05;11.15;;;10.15;;
20073;SDS011;10197;54.282;10.078;2023-06-19T11:56:34;10.82;;;9.77;;
20073;SDS011;10197;54.282;10.078;2023-06-19T11:59:02;10.18;;;9.23;;
20073;SDS011;10197;54.282;10.078;2023-06-19T12:01:31;11.05;;;10.05;;
20073;SDS011;10197;54.282;10.078;2023-06-19T12:03:59;9.90;;;8.90;;
20073;SDS011;10197;54.282;10.078;2023-06-19T12:06:26;13.23;;;9.52;;
20073;SDS011;10197;54.282;10.078;2023-06-19T12:08:53;10.82;;;9.35;;
20073;SDS011;10197;54.282;10.078;2023-06-19T12:11:20;10.38;;;9.38;;
20073;SDS011;10197;54.282;10.078;2023-06-19T12:13:49;10.45;;;9.55;;
20073;SDS011;10197;54.282;10.078;2023-06-19T12:16:19;12.80;;;11.48;;
20073;SDS011;10197;54.282;10.078;2023-06-19T12:18:45;10.65;;;9.55;;
20073;SDS011;10197;54.282;10.078;2023-06-19T12:21:12;10.80;;;9.80;;
20073;SDS011;10197;54.282;10.078;2023-06-19T12:23:40;9.30;;;8.48;;
20073;SDS011;10197;54.282;10.078;2023-06-19T12:26:06;9.30;;;8.50;;
20073;SDS011;10197;54.282;10.078;2023-06-19T12:28:33;9.43;;;8.55;;
20073;SDS011;10197;54.282;10.078;2023-06-19T12:31:01;10.85;;;8.43;;
20073;SDS011;10197;54.282;10.078;2023-06-19T12:33:29;9.70;;;8.75;;
20073;SDS011;10197;54.282;10.078;2023-06-19T12:35:58;8.63;;;7.82;;
20073;SDS011;10197;54.282;10.078;2023-06-19T12:38:25;8.82;;;8.02;;
20073;SDS011;10197;54.282;10.078;2023-06-19T12:40:52;8.90;;;8.02;;
20073;SDS011;10197;54.282;10.078;2023-06-19T12:43:18;10.05;;;9.02;;
20073;SDS011;10197;54.282;10.078;2023-06-19T12:45:45;9.07;;;8.18;;
20073;SDS011;10197;54.282;10.078;2023-06-19T12:48:13;9.30;;;8.18;;
20073;SDS011;10197;54.282;10.078;2023-06-19T12:50:40;10.75;;;9.75;;
20073;SDS011;10197;54.282;10.078;2023-06-19T12:53:07;11.63;;;10.52;;
20073;SDS011;10197;54.282;10.078;2023-06-19T12:55:34;10.52;;;9.52;;
20073;SDS011;10197;54.282;10.078;2023-06-19T12:58:01;9.80;;;8.80;;
20073;SDS011;10197;54.282;10.078;2023-06-19T13:00:28;11.52;;;9.23;;
20073;SDS011;10197;54.282;10.078;2023-06-19T13:02:58;8.93;;;8.07;;
20073;SDS011;10197;54.282;10.078;2023-06-19T13:05:26;9.75;;;8.85;;
20073;SDS011;10197;54.282;10.078;2023-06-19T13:07:53;10.73;;;9.63;;
20073;SDS011;10197;54.282;10.078;2023-06-19T13:10:21;12.75;;;11.45;;
20073;SDS011;10197;54.282;10.078;2023-06-19T13:13:09;12.68;;;11.27;;
20073;SDS011;10197;54.282;10.078;2023-06-19T13:16:05;11.27;;;10.07;;
20073;SDS011;10197;54.282;10.078;2023-06-19T13:18:55;11.13;;;10.13;;
20073;SDS011;10197;54.282;10.078;2023-06-19T13:21:23;11.05;;;10.00;;
20073;SDS011;10197;54.282;10.078;2023-06-19T13:24:04;11.32;;;10.23;;
20073;SDS011;10197;54.282;10.078;2023-06-19T13:26:34;12.52;;;10.00;;
20073;SDS011;10197;54.282;10.078;2023-06-19T13:29:07;12.50;;;11.30;;
20073;SDS011;10197;54.282;10.078;2023-06-19T13:31:52;12.25;;;11.15;;
20073;SDS011;10197;54.282;10.078;2023-06-19T13:34:19;11.70;;;10.75;;
20073;SDS011;10197;54.282;10.078;2023-06-19T13:36:50;11.65;;;10.48;;
20073;SDS011;10197;54.282;10.078;2023-06-19T13:39:17;11.82;;;10.65;;
20073;SDS011;10197;54.282;10.078;2023-06-19T13:41:45;11.98;;;10.88;;
20073;SDS011;10197;54.282;10.078;2023-06-19T13:44:12;15.57;;;11.40;;
20073;SDS011;10197;54.282;10.078;2023-06-19T13:46:39;13.05;;;11.52;;
20073;SDS011;10197;54.282;10.078;2023-06-19T13:49:12;13.25;;;11.32;;
20073;SDS011;10197;54.282;10.078;2023-06-19T13:51:39;12.77;;;10.88;;
20073;SDS011;10197;54.282;10.078;2023-06-19T13:54:09;11.30;;;9.73;;
20073;SDS011;10197;54.282;10.078;2023-06-19T13:56:38;13.07;;;8.48;;
20073;SDS011;10197;54.282;10.078;2023-06-19T13:59:06;11.43;;;8.45;;
20073;SDS011;10197;54.282;10.078;2023-06-19T14:01:33;9.07;;;8.18;;
20073;SDS011;10197;54.282;10.078;2023-06-19T14:04:00;10.30;;;8.90;;
20073;SDS011;10197;54.282;10.078;2023-06-19T14:06:27;10.73;;;8.27;;
20073;SDS011;10197;54.282;10.078;2023-06-19T14:08:55;8.15;;;7.35;;
20073;SDS011;10197;54.282;10.078;2023-06-19T14:11:23;10.57;;;7.40;;
20073;SDS011;10197;54.282;10.078;2023-06-19T14:13:50;8.52;;;6.38;;
20073;SDS011;10197;54.282;10.078;2023-06-19T14:16:17;6.97;;;5.30;;
20073;SDS011;10197;54.282;10.078;2023-06-19T14:18:44;7.50;;;6.07;;
20073;SDS011;10197;54.282;10.078;2023-06-19T14:21:11;6.25;;;5.63;;
20073;SDS011;10197;54.282;10.078;2023-06-19T14:23:38;8.00;;;6.05;;
20073;SDS011;10197;54.282;10.078;2023-06-19T14:26:12;10.18;;;5.28;;
20073;SDS011;10197;54.282;10.078;2023-06-19T14:28:40;7.95;;;5.45;;
20073;SDS011;10197;54.282;10.078;2023-06-19T14:31:07;5.93;;;5.32;;
20073;SDS011;10197;54.282;10.078;2023-06-19T14:33:34;5.85;;;5.32;;
20073;SDS011;10197;54.282;10.078;2023-06-19T14:36:02;7.00;;;5.18;;
20073;SDS011;10197;54.282;10.078;2023-06-19T14:38:29;6.30;;;5.10;;
20073;SDS011;10197;54.282;10.078;2023-06-19T14:40:59;6.32;;;4.90;;
20073;SDS011;10197;54.282;10.078;2023-06-19T14:43:26;5.30;;;4.80;;
20073;SDS011;10197;54.282;10.078;2023-06-19T14:45:55;6.10;;;4.80;;
20073;SDS011;10197;54.282;10.078;2023-06-19T14:48:21;6.15;;;5.55;;
20073;SDS011;10197;54.282;10.078;2023-06-19T14:50:48;6.35;;;5.75;;
20073;SDS011;10197;54.282;10.078;2023-06-19T14:53:16;6.65;;;5.47;;
20073;SDS011;10197;54.282;10.078;2023-06-19T14:55:43;7.30;;;5.85;;
20073;SDS011;10197;54.282;10.078;2023-06-19T14:58:11;10.02;;;5.97;;
20073;SDS011;10197;54.282;10.078;2023-06-19T15:00:39;6.68;;;6.05;;
20073;SDS011;10197;54.282;10.078;2023-06-19T15:03:07;13.85;;;6.90;;
20073;SDS011;10197;54.282;10.078;2023-06-19T15:05:34;5.97;;;5.38;;
20073;SDS011;10197;54.282;10.078;2023-06-19T15:08:01;8.80;;;6.18;;
20073;SDS011;10197;54.282;10.078;2023-06-19T15:10:28;6.65;;;5.60;;
20073;SDS011;10197;54.282;10.078;2023-06-19T15:12:55;7.03;;;5.75;;
20073;SDS011;10197;54.282;10.078;2023-06-19T15:15:22;6.60;;;5.30;;
20073;SDS011;10197;54.282;10.078;2023-06-19T15:17:49;7.97;;;6.38;;
20073;SDS011;10197;54.282;10.078;2023-06-19T15:20:17;7.35;;;6.43;;
20073;SDS011;10197;54.282;10.078;2023-06-19T15:22:45;6.10;;;5.50;;